Gulkana Airport
PAGK : now visible

Aeroporto :











RITROVATECI SU...

 
LOGIN :

Iscrizione | Disclaimer

   EN    FR    IT 

 









Sommario :    VFR   VFR Marginale   IFR   IFR Intensivo   IFR Molto Intensivo
Visibilità : 
Base nubi : 
>= 8 km
>= 3000ft
5 / 8 km
1000 / 3000 ft
1500m / 5 km
500 / 1000 ft
800 / 1500m
200 / 500 ft
< 800m
< 200 ft
Simboli :   Temporali  Nebbia  Neve Forte  Precipitazioni Forti  Vento > 20 kt






- Altitudine del aeroporto : 1586 ft
- Codice IATA : GKN


PAGK - Gulkana

ULTIMO METAR :
  • 021053Z AUTO 16005KT 10SM OVC100 04/02 A2959 RMK AO2 SLP028 T00440017 TSNO

METARs OBSOLETI :
  • 020953Z AUTO 17004KT 10SM OVC100 05/01 A2959 RMK AO2 SLP027 T00500011 TSNO
  • 020853Z AUTO 17004KT 10SM FEW100 05/01 A2958 RMK SLP024 T00500011 401500050 51006 TSNO VIA AUTODIAL

TAF PAGK
Valido dal 02 a 12 ore il 03 a 12 ore UTC


021123Z 0212/0312 16005KT P6SM OVC100
FM030000 17012G22KT P6SM OVC100
FM031000 16010KT P6SM BKN100
FIR PAZA / America del Nord



MetMap, La meteo Aeronautica in un colpo d'occhio ! - Copyright ORBIFLY Dicembre 2007 - Disclaimer

ORBIFLY MET'MAP TEAM :

Programmazione e sviluppo : Alexandra Zaïnal
Concezione : Baudouin d'Aumeries
Aiuto per la programmazione : Marc-Olivier Méhu
Supporto tecnico e logistico : Manuel Goepfert
Aiuto per la traduzione : Arnaldo La Scala

Contatto : metmap@orbifly.com




FONTI E CREDITI :

   NOAA       Earth
Advisory